sensor_id;sensor_type;location;lat;lon;timestamp;pressure;altitude;pressure_sealevel;temperature;humidity
23261;BME280;11799;47.740;-3.390;2023-04-09T00:00:33;101922.28;;;11.35;100.00
23261;BME280;11799;47.740;-3.390;2023-04-09T00:02:58;101922.38;;;11.33;100.00
23261;BME280;11799;47.740;-3.390;2023-04-09T00:05:24;101912.00;;;11.30;100.00
23261;BME280;11799;47.740;-3.390;2023-04-09T00:07:50;101918.22;;;11.29;100.00
23261;BME280;11799;47.740;-3.390;2023-04-09T00:10:15;101913.88;;;11.28;100.00
23261;BME280;11799;47.740;-3.390;2023-04-09T00:12:41;101916.72;;;11.25;100.00
23261;BME280;11799;47.740;-3.390;2023-04-09T00:15:07;101907.19;;;11.22;100.00
23261;BME280;11799;47.740;-3.390;2023-04-09T00:17:33;101903.69;;;11.22;100.00
23261;BME280;11799;47.740;-3.390;2023-04-09T00:19:58;101908.13;;;11.21;100.00
23261;BME280;11799;47.740;-3.390;2023-04-09T00:22:24;101899.44;;;11.19;100.00
23261;BME280;11799;47.740;-3.390;2023-04-09T00:24:49;101895.19;;;11.17;100.00
23261;BME280;11799;47.740;-3.390;2023-04-09T00:27:15;101898.69;;;11.17;100.00
23261;BME280;11799;47.740;-3.390;2023-04-09T00:29:41;101897.00;;;11.16;100.00
23261;BME280;11799;47.740;-3.390;2023-04-09T00:32:06;101905.97;;;11.14;100.00
23261;BME280;11799;47.740;-3.390;2023-04-09T00:34:32;101900.59;;;11.15;100.00
23261;BME280;11799;47.740;-3.390;2023-04-09T00:36:58;101898.03;;;11.14;100.00
23261;BME280;11799;47.740;-3.390;2023-04-09T00:39:23;101898.13;;;11.12;100.00
23261;BME280;11799;47.740;-3.390;2023-04-09T00:41:49;101900.88;;;11.11;100.00
23261;BME280;11799;47.740;-3.390;2023-04-09T00:44:15;101897.28;;;11.12;100.00
23261;BME280;11799;47.740;-3.390;2023-04-09T00:46:40;101899.06;;;11.11;100.00
23261;BME280;11799;47.740;-3.390;2023-04-09T00:49:06;101899.06;;;11.11;100.00
23261;BME280;11799;47.740;-3.390;2023-04-09T00:51:32;101897.38;;;11.10;100.00
23261;BME280;11799;47.740;-3.390;2023-04-09T00:53:57;101897.38;;;11.10;100.00
23261;BME280;11799;47.740;-3.390;2023-04-09T00:56:23;101893.13;;;11.08;100.00
23261;BME280;11799;47.740;-3.390;2023-04-09T00:58:49;101899.28;;;11.08;100.00
23261;BME280;11799;47.740;-3.390;2023-04-09T01:01:15;101894.94;;;11.07;100.00
23261;BME280;11799;47.740;-3.390;2023-04-09T01:03:41;101888.78;;;11.07;100.00
23261;BME280;11799;47.740;-3.390;2023-04-09T01:06:11;101893.31;;;11.05;100.00
23261;BME280;11799;47.740;-3.390;2023-04-09T01:08:48;101885.41;;;11.05;100.00
23261;BME280;11799;47.740;-3.390;2023-04-09T01:13:50;101889.84;;;11.04;100.00
23261;BME280;11799;47.740;-3.390;2023-04-09T01:16:21;101880.09;;;11.05;100.00
23261;BME280;11799;47.740;-3.390;2023-04-09T01:19:01;101881.06;;;11.04;100.00
23261;BME280;11799;47.740;-3.390;2023-04-09T01:21:33;101879.34;;;11.03;100.00
23261;BME280;11799;47.740;-3.390;2023-04-09T01:26:57;101861.13;;;10.98;100.00
23261;BME280;11799;47.740;-3.390;2023-04-09T01:29:31;101868.97;;;11.00;100.00
23261;BME280;11799;47.740;-3.390;2023-04-09T01:31:59;101869.91;;;10.99;100.00
23261;BME280;11799;47.740;-3.390;2023-04-09T01:34:27;101854.19;;;10.97;100.00
23261;BME280;11799;47.740;-3.390;2023-04-09T01:36:58;101855.00;;;10.98;100.00
23261;BME280;11799;47.740;-3.390;2023-04-09T01:39:25;101858.63;;;10.97;100.00
23261;BME280;11799;47.740;-3.390;2023-04-09T01:41:51;101863.06;;;10.96;100.00
23261;BME280;11799;47.740;-3.390;2023-04-09T01:44:18;101872.78;;;10.96;100.00
23261;BME280;11799;47.740;-3.390;2023-04-09T01:46:48;101863.25;;;10.93;100.00
23261;BME280;11799;47.740;-3.390;2023-04-09T01:49:15;101860.59;;;10.93;100.00
23261;BME280;11799;47.740;-3.390;2023-04-09T01:51:42;101852.03;;;10.89;100.00
23261;BME280;11799;47.740;-3.390;2023-04-09T01:54:07;101847.78;;;10.87;100.00
23261;BME280;11799;47.740;-3.390;2023-04-09T01:56:41;101851.28;;;10.87;100.00
23261;BME280;11799;47.740;-3.390;2023-04-09T01:59:07;101859.28;;;10.86;100.00
23261;BME280;11799;47.740;-3.390;2023-04-09T02:01:38;101855.91;;;10.84;100.00
23261;BME280;11799;47.740;-3.390;2023-04-09T02:04:10;101859.47;;;10.83;100.00
23261;BME280;11799;47.740;-3.390;2023-04-09T02:06:43;101853.44;;;10.81;100.00
23261;BME280;11799;47.740;-3.390;2023-04-09T02:09:10;101859.66;;;10.80;100.00
23261;BME280;11799;47.740;-3.390;2023-04-09T02:11:39;101863.16;;;10.80;100.00
23261;BME280;11799;47.740;-3.390;2023-04-09T02:14:06;101851.94;;;10.77;100.00
23261;BME280;11799;47.740;-3.390;2023-04-09T02:16:35;101859.00;;;10.76;100.00
23261;BME280;11799;47.740;-3.390;2023-04-09T02:19:02;101853.63;;;10.78;100.00
23261;BME280;11799;47.740;-3.390;2023-04-09T02:21:27;101849.28;;;10.77;100.00
23261;BME280;11799;47.740;-3.390;2023-04-09T02:23:54;101854.66;;;10.75;100.00
23261;BME280;11799;47.740;-3.390;2023-04-09T02:26:20;101852.88;;;10.76;100.00
23261;BME280;11799;47.740;-3.390;2023-04-09T02:28:46;101854.75;;;10.74;100.00
23261;BME280;11799;47.740;-3.390;2023-04-09T02:31:12;101844.66;;;10.66;100.00
23261;BME280;11799;47.740;-3.390;2023-04-09T02:33:37;101859.38;;;10.70;100.00
23261;BME280;11799;47.740;-3.390;2023-04-09T02:36:03;101851.47;;;10.70;100.00
23261;BME280;11799;47.740;-3.390;2023-04-09T02:38:29;101846.28;;;10.69;100.00
23261;BME280;11799;47.740;-3.390;2023-04-09T02:40:55;101841.19;;;10.66;100.00
23261;BME280;11799;47.740;-3.390;2023-04-09T02:43:21;101842.03;;;10.66;100.00
23261;BME280;11799;47.740;-3.390;2023-04-09T02:45:46;101841.19;;;10.66;100.00
23261;BME280;11799;47.740;-3.390;2023-04-09T02:48:12;101833.44;;;10.63;100.00
23261;BME280;11799;47.740;-3.390;2023-04-09T02:50:38;101823.91;;;10.60;100.00
23261;BME280;11799;47.740;-3.390;2023-04-09T02:53:04;101823.16;;;10.58;100.00
23261;BME280;11799;47.740;-3.390;2023-04-09T02:55:29;101826.09;;;10.53;100.00
23261;BME280;11799;47.740;-3.390;2023-04-09T02:57:55;101833.16;;;10.53;100.00
23261;BME280;11799;47.740;-3.390;2023-04-09T03:00:21;101836.75;;;10.52;100.00
23261;BME280;11799;47.740;-3.390;2023-04-09T03:02:46;101837.88;;;10.48;100.00
23261;BME280;11799;47.740;-3.390;2023-04-09T03:05:12;101830.03;;;10.46;100.00
23261;BME280;11799;47.740;-3.390;2023-04-09T03:07:38;101825.03;;;10.42;100.00
23261;BME280;11799;47.740;-3.390;2023-04-09T03:10:04;101816.41;;;10.40;100.00
23261;BME280;11799;47.740;-3.390;2023-04-09T03:12:29;101813.75;;;10.40;100.00
23261;BME280;11799;47.740;-3.390;2023-04-09T03:14:55;101810.44;;;10.36;100.00
23261;BME280;11799;47.740;-3.390;2023-04-09T03:17:20;101811.50;;;10.34;100.00
23261;BME280;11799;47.740;-3.390;2023-04-09T03:19:49;101794.88;;;10.32;100.00
23261;BME280;11799;47.740;-3.390;2023-04-09T03:22:15;101796.03;;;10.28;100.00
23261;BME280;11799;47.740;-3.390;2023-04-09T03:24:40;101790.91;;;10.24;100.00
23261;BME280;11799;47.740;-3.390;2023-04-09T03:27:06;101786.69;;;10.22;100.00
23261;BME280;11799;47.740;-3.390;2023-04-09T03:29:32;101783.94;;;10.23;100.00
23261;BME280;11799;47.740;-3.390;2023-04-09T03:31:58;101782.34;;;10.21;100.00
23261;BME280;11799;47.740;-3.390;2023-04-09T03:34:24;101781.66;;;10.17;100.00
23261;BME280;11799;47.740;-3.390;2023-04-09T03:36:52;101772.03;;;10.16;100.00
23261;BME280;11799;47.740;-3.390;2023-04-09T03:39:22;101789.66;;;10.16;100.00
23261;BME280;11799;47.740;-3.390;2023-04-09T03:41:48;101780.97;;;10.14;100.00
23261;BME280;11799;47.740;-3.390;2023-04-09T03:44:15;101783.53;;;10.15;100.00
23261;BME280;11799;47.740;-3.390;2023-04-09T03:46:54;101781.84;;;10.14;100.00
23261;BME280;11799;47.740;-3.390;2023-04-09T03:49:20;101777.50;;;10.13;100.00
23261;BME280;11799;47.740;-3.390;2023-04-09T03:51:45;101783.63;;;10.14;100.00
23261;BME280;11799;47.740;-3.390;2023-04-09T03:54:11;101784.47;;;10.14;100.00
23261;BME280;11799;47.740;-3.390;2023-04-09T03:56:38;101797.84;;;10.11;100.00
23261;BME280;11799;47.740;-3.390;2023-04-09T03:59:07;101797.09;;;10.09;100.00
23261;BME280;11799;47.740;-3.390;2023-04-09T04:01:37;101792.56;;;10.11;100.00
23261;BME280;11799;47.740;-3.390;2023-04-09T04:04:02;101787.47;;;10.08;100.00
23261;BME280;11799;47.740;-3.390;2023-04-09T04:06:41;101796.34;;;10.07;100.00
23261;BME280;11799;47.740;-3.390;2023-04-09T04:09:24;101797.28;;;10.06;100.00
23261;BME280;11799;47.740;-3.390;2023-04-09T04:11:56;101795.50;;;10.07;100.00
23261;BME280;11799;47.740;-3.390;2023-04-09T04:14:30;101793.13;;;10.02;100.00
23261;BME280;11799;47.740;-3.390;2023-04-09T04:17:02;101801.22;;;9.99;100.00
23261;BME280;11799;47.740;-3.390;2023-04-09T04:19:29;101787.44;;;9.94;100.00
23261;BME280;11799;47.740;-3.390;2023-04-09T04:21:55;101799.13;;;9.90;100.00
23261;BME280;11799;47.740;-3.390;2023-04-09T04:24:21;101793.75;;;9.91;100.00
23261;BME280;11799;47.740;-3.390;2023-04-09T04:26:47;101790.63;;;9.85;100.00
23261;BME280;11799;47.740;-3.390;2023-04-09T04:29:15;101797.78;;;9.83;100.00
23261;BME280;11799;47.740;-3.390;2023-04-09T04:32:07;101810.88;;;9.84;100.00
23261;BME280;11799;47.740;-3.390;2023-04-09T04:34:36;101811.94;;;9.82;100.00
23261;BME280;11799;47.740;-3.390;2023-04-09T04:37:12;101812.13;;;9.79;100.00
23261;BME280;11799;47.740;-3.390;2023-04-09T04:39:38;101807.13;;;9.74;100.00
23261;BME280;11799;47.740;-3.390;2023-04-09T04:42:08;101817.00;;;9.71;100.00
23261;BME280;11799;47.740;-3.390;2023-04-09T04:44:34;101810.03;;;9.70;100.00
23261;BME280;11799;47.740;-3.390;2023-04-09T04:47:11;101809.34;;;9.66;100.00
23261;BME280;11799;47.740;-3.390;2023-04-09T04:49:36;101808.69;;;9.63;100.00
23261;BME280;11799;47.740;-3.390;2023-04-09T04:52:05;101812.25;;;9.62;100.00
23261;BME280;11799;47.740;-3.390;2023-04-09T04:54:32;101801.97;;;9.57;100.00
23261;BME280;11799;47.740;-3.390;2023-04-09T04:56:58;101803.59;;;9.59;100.00
23261;BME280;11799;47.740;-3.390;2023-04-09T04:59:36;101806.56;;;9.53;100.00
23261;BME280;11799;47.740;-3.390;2023-04-09T05:02:04;101823.91;;;9.57;100.00
23261;BME280;11799;47.740;-3.390;2023-04-09T05:04:36;101826.66;;;9.56;100.00
23261;BME280;11799;47.740;-3.390;2023-04-09T05:07:03;101823.91;;;9.57;100.00
23261;BME280;11799;47.740;-3.390;2023-04-09T05:09:28;101810.72;;;9.57;100.00
23261;BME280;11799;47.740;-3.390;2023-04-09T05:12:04;101816.00;;;9.57;100.00
23261;BME280;11799;47.740;-3.390;2023-04-09T05:14:30;101818.75;;;9.56;100.00
23261;BME280;11799;47.740;-3.390;2023-04-09T05:16:55;101820.69;;;9.52;100.00
23261;BME280;11799;47.740;-3.390;2023-04-09T05:19:24;101819.09;;;9.50;100.00
23261;BME280;11799;47.740;-3.390;2023-04-09T05:21:56;101824.63;;;9.45;100.00
23261;BME280;11799;47.740;-3.390;2023-04-09T05:24:22;101837.88;;;9.44;100.00
23261;BME280;11799;47.740;-3.390;2023-04-09T05:26:48;101838.06;;;9.41;100.00
23261;BME280;11799;47.740;-3.390;2023-04-09T05:29:14;101828.19;;;9.44;100.00
23261;BME280;11799;47.740;-3.390;2023-04-09T05:31:41;101826.59;;;9.42;100.00
23261;BME280;11799;47.740;-3.390;2023-04-09T05:34:17;101829.31;;;9.40;100.00
23261;BME280;11799;47.740;-3.390;2023-04-09T05:36:48;101832.28;;;9.34;100.00
23261;BME280;11799;47.740;-3.390;2023-04-09T05:39:14;101830.31;;;9.38;100.00
23261;BME280;11799;47.740;-3.390;2023-04-09T05:41:39;101835.78;;;9.35;100.00
23261;BME280;11799;47.740;-3.390;2023-04-09T05:44:35;101829.56;;;9.36;100.00
23261;BME280;11799;47.740;-3.390;2023-04-09T05:47:08;101827.00;;;9.34;100.00
23261;BME280;11799;47.740;-3.390;2023-04-09T05:49:53;101827.44;;;9.26;100.00
23261;BME280;11799;47.740;-3.390;2023-04-09T05:52:19;101823.31;;;9.22;100.00
23261;BME280;11799;47.740;-3.390;2023-04-09T05:54:46;101824.81;;;9.26;100.00
23261;BME280;11799;47.740;-3.390;2023-04-09T05:57:16;101835.56;;;9.23;100.00
23261;BME280;11799;47.740;-3.390;2023-04-09T05:59:46;101836.50;;;9.22;100.00
23261;BME280;11799;47.740;-3.390;2023-04-09T06:02:11;101843.47;;;9.23;100.00
23261;BME280;11799;47.740;-3.390;2023-04-09T06:04:37;101844.56;;;9.19;100.00
23261;BME280;11799;47.740;-3.390;2023-04-09T06:07:02;101825.34;;;9.17;100.00
23261;BME280;11799;47.740;-3.390;2023-04-09T06:09:28;101822.63;;;9.19;100.00
23261;BME280;11799;47.740;-3.390;2023-04-09T06:11:53;101821.94;;;9.15;100.00
23261;BME280;11799;47.740;-3.390;2023-04-09T06:14:19;101824.41;;;9.18;100.00
23261;BME280;11799;47.740;-3.390;2023-04-09T06:16:45;101819.16;;;9.18;100.00
23261;BME280;11799;47.740;-3.390;2023-04-09T06:19:11;101820.00;;;9.19;100.00
23261;BME280;11799;47.740;-3.390;2023-04-09T06:21:37;101819.22;;;9.17;100.00
23261;BME280;11799;47.740;-3.390;2023-04-09T06:24:02;101823.22;;;9.24;100.00
23261;BME280;11799;47.740;-3.390;2023-04-09T06:26:28;101827.44;;;9.26;100.00
23261;BME280;11799;47.740;-3.390;2023-04-09T06:28:53;101822.94;;;9.28;100.00
23261;BME280;11799;47.740;-3.390;2023-04-09T06:31:19;101814.84;;;9.32;100.00
23261;BME280;11799;47.740;-3.390;2023-04-09T06:33:44;101814.69;;;9.35;100.00
23261;BME280;11799;47.740;-3.390;2023-04-09T06:36:10;101811.88;;;9.38;100.00
23261;BME280;11799;47.740;-3.390;2023-04-09T06:38:36;101818.66;;;9.42;100.00
23261;BME280;11799;47.740;-3.390;2023-04-09T06:41:01;101822.91;;;9.44;100.00
23261;BME280;11799;47.740;-3.390;2023-04-09T06:43:27;101822.47;;;9.52;100.00
23261;BME280;11799;47.740;-3.390;2023-04-09T06:45:53;101813.53;;;9.54;100.00
23261;BME280;11799;47.740;-3.390;2023-04-09T06:48:18;101809.03;;;9.56;100.00
23261;BME280;11799;47.740;-3.390;2023-04-09T06:50:44;101808.00;;;9.59;100.00
23261;BME280;11799;47.740;-3.390;2023-04-09T06:53:10;101813.19;;;9.60;100.00
23261;BME280;11799;47.740;-3.390;2023-04-09T06:55:35;101821.78;;;9.64;100.00
23261;BME280;11799;47.740;-3.390;2023-04-09T06:58:01;101820.50;;;9.71;100.00
23261;BME280;11799;47.740;-3.390;2023-04-09T07:00:27;101822.09;;;9.74;100.00
23261;BME280;11799;47.740;-3.390;2023-04-09T07:02:52;101830.69;;;9.77;100.00
23261;BME280;11799;47.740;-3.390;2023-04-09T07:05:18;101830.28;;;9.83;100.00
23261;BME280;11799;47.740;-3.390;2023-04-09T07:07:44;101830.78;;;9.90;100.00
23261;BME280;11799;47.740;-3.390;2023-04-09T07:10:09;101835.53;;;9.99;100.00
23261;BME280;11799;47.740;-3.390;2023-04-09T07:12:35;101831.59;;;10.06;100.00
23261;BME280;11799;47.740;-3.390;2023-04-09T07:15:02;101831.22;;;10.12;100.00
23261;BME280;11799;47.740;-3.390;2023-04-09T07:17:29;101836.94;;;10.20;100.00
23261;BME280;11799;47.740;-3.390;2023-04-09T07:19:55;101838.25;;;10.28;100.00
23261;BME280;11799;47.740;-3.390;2023-04-09T07:22:23;101849.88;;;10.39;100.00
23261;BME280;11799;47.740;-3.390;2023-04-09T07:24:49;101845.50;;;10.52;100.00
23261;BME280;11799;47.740;-3.390;2023-04-09T07:27:25;101844.56;;;10.68;100.00
23261;BME280;11799;47.740;-3.390;2023-04-09T07:29:55;101842.59;;;10.85;100.00
23261;BME280;11799;47.740;-3.390;2023-04-09T07:32:21;101841.41;;;11.04;100.00
23261;BME280;11799;47.740;-3.390;2023-04-09T07:34:47;101846.38;;;11.22;100.00
23261;BME280;11799;47.740;-3.390;2023-04-09T07:37:13;101841.59;;;11.42;100.00
23261;BME280;11799;47.740;-3.390;2023-04-09T07:39:38;101830.22;;;11.67;100.00
23261;BME280;11799;47.740;-3.390;2023-04-09T07:42:04;101831.69;;;11.85;100.00
23261;BME280;11799;47.740;-3.390;2023-04-09T07:44:36;101826.53;;;12.09;100.00
23261;BME280;11799;47.740;-3.390;2023-04-09T07:47:03;101825.47;;;12.24;99.38
23261;BME280;11799;47.740;-3.390;2023-04-09T07:49:28;101821.13;;;12.36;100.00
23261;BME280;11799;47.740;-3.390;2023-04-09T07:51:55;101825.56;;;12.48;99.07
23261;BME280;11799;47.740;-3.390;2023-04-09T07:54:21;101825.25;;;12.65;97.08
23261;BME280;11799;47.740;-3.390;2023-04-09T07:56:47;101827.97;;;12.76;93.36
23261;BME280;11799;47.740;-3.390;2023-04-09T07:59:12;101824.53;;;12.87;92.78
23261;BME280;11799;47.740;-3.390;2023-04-09T08:01:40;101819.22;;;13.00;90.90
23261;BME280;11799;47.740;-3.390;2023-04-09T08:04:06;101820.25;;;13.10;93.08
23261;BME280;11799;47.740;-3.390;2023-04-09T08:06:31;101821.41;;;13.18;92.65
23261;BME280;11799;47.740;-3.390;2023-04-09T08:08:57;101821.34;;;13.31;88.78
23261;BME280;11799;47.740;-3.390;2023-04-09T08:11:22;101813.78;;;13.38;89.79
23261;BME280;11799;47.740;-3.390;2023-04-09T08:13:53;101818.53;;;13.45;89.01
23261;BME280;11799;47.740;-3.390;2023-04-09T08:16:19;101808.69;;;13.59;88.27
23261;BME280;11799;47.740;-3.390;2023-04-09T08:18:46;101812.47;;;13.67;90.14
23261;BME280;11799;47.740;-3.390;2023-04-09T08:21:12;101817.81;;;13.78;82.84
23261;BME280;11799;47.740;-3.390;2023-04-09T08:23:37;101819.75;;;13.87;86.87
23261;BME280;11799;47.740;-3.390;2023-04-09T08:26:03;101819.78;;;13.99;84.82
23261;BME280;11799;47.740;-3.390;2023-04-09T08:28:29;101823.44;;;14.09;82.87
23261;BME280;11799;47.740;-3.390;2023-04-09T08:30:54;101810.53;;;14.15;80.15
23261;BME280;11799;47.740;-3.390;2023-04-09T08:33:20;101803.41;;;14.16;81.68
23261;BME280;11799;47.740;-3.390;2023-04-09T08:35:45;101803.41;;;14.16;81.93
23261;BME280;11799;47.740;-3.390;2023-04-09T08:38:11;101809.44;;;14.18;79.73
23261;BME280;11799;47.740;-3.390;2023-04-09T08:40:36;101816.09;;;14.24;82.55
23261;BME280;11799;47.740;-3.390;2023-04-09T08:43:06;101817.06;;;14.23;81.95
23261;BME280;11799;47.740;-3.390;2023-04-09T08:45:33;101812.00;;;14.31;81.77
23261;BME280;11799;47.740;-3.390;2023-04-09T08:48:01;101813.09;;;14.39;82.53
23261;BME280;11799;47.740;-3.390;2023-04-09T08:50:31;101817.81;;;14.47;81.09
23261;BME280;11799;47.740;-3.390;2023-04-09T08:53:08;101814.31;;;14.58;80.71
23261;BME280;11799;47.740;-3.390;2023-04-09T08:55:34;101819.66;;;14.69;80.14
23261;BME280;11799;47.740;-3.390;2023-04-09T08:58:04;101819.03;;;14.76;77.87
23261;BME280;11799;47.740;-3.390;2023-04-09T09:00:31;101822.91;;;14.83;77.29
23261;BME280;11799;47.740;-3.390;2023-04-09T09:03:09;101820.00;;;14.86;75.13
23261;BME280;11799;47.740;-3.390;2023-04-09T09:05:42;101827.50;;;14.93;73.43
23261;BME280;11799;47.740;-3.390;2023-04-09T09:08:26;101823.25;;;14.90;78.28
23261;BME280;11799;47.740;-3.390;2023-04-09T09:10:52;101827.00;;;14.88;80.73
23261;BME280;11799;47.740;-3.390;2023-04-09T09:15:44;101827.84;;;14.99;76.73
23261;BME280;11799;47.740;-3.390;2023-04-09T09:18:12;101826.28;;;14.97;79.57
23261;BME280;11799;47.740;-3.390;2023-04-09T09:20:37;101814.78;;;14.96;78.99
23261;BME280;11799;47.740;-3.390;2023-04-09T09:23:03;101825.91;;;14.90;81.02
23261;BME280;11799;47.740;-3.390;2023-04-09T09:25:29;101817.47;;;14.85;79.94
23261;BME280;11799;47.740;-3.390;2023-04-09T09:28:09;101825.56;;;14.83;80.12
23261;BME280;11799;47.740;-3.390;2023-04-09T09:30:36;101826.41;;;14.84;82.49
23261;BME280;11799;47.740;-3.390;2023-04-09T09:33:07;101830.16;;;14.81;81.12
23261;BME280;11799;47.740;-3.390;2023-04-09T09:35:52;101832.69;;;14.83;82.21
23261;BME280;11799;47.740;-3.390;2023-04-09T09:38:19;101831.25;;;14.90;83.18
23261;BME280;11799;47.740;-3.390;2023-04-09T09:40:46;101826.28;;;14.97;85.75
23261;BME280;11799;47.740;-3.390;2023-04-09T09:43:12;101822.72;;;15.07;83.45
23261;BME280;11799;47.740;-3.390;2023-04-09T09:45:39;101822.47;;;15.10;80.55
23261;BME280;11799;47.740;-3.390;2023-04-09T09:48:06;101820.88;;;15.19;82.77
23261;BME280;11799;47.740;-3.390;2023-04-09T09:50:33;101824.03;;;15.24;79.54
23261;BME280;11799;47.740;-3.390;2023-04-09T09:53:06;101826.56;;;15.26;81.44
23261;BME280;11799;47.740;-3.390;2023-04-09T09:55:33;101829.94;;;15.28;76.08
23261;BME280;11799;47.740;-3.390;2023-04-09T09:58:08;101831.63;;;15.29;74.90
23261;BME280;11799;47.740;-3.390;2023-04-09T10:00:39;101843.00;;;15.31;74.47
23261;BME280;11799;47.740;-3.390;2023-04-09T10:03:18;101842.50;;;15.37;74.61
23261;BME280;11799;47.740;-3.390;2023-04-09T10:05:47;101840.31;;;15.42;73.40
23261;BME280;11799;47.740;-3.390;2023-04-09T10:08:13;101842.34;;;15.49;71.98
23261;BME280;11799;47.740;-3.390;2023-04-09T10:10:40;101841.00;;;15.55;74.68
23261;BME280;11799;47.740;-3.390;2023-04-09T10:13:14;101842.66;;;15.67;67.42
23261;BME280;11799;47.740;-3.390;2023-04-09T10:15:42;101839.59;;;15.72;67.94
23261;BME280;11799;47.740;-3.390;2023-04-09T10:18:09;101842.84;;;15.75;65.88
23261;BME280;11799;47.740;-3.390;2023-04-09T10:20:58;101838.31;;;15.87;68.69
23261;BME280;11799;47.740;-3.390;2023-04-09T10:23:38;101836.63;;;15.86;72.74
23261;BME280;11799;47.740;-3.390;2023-04-09T10:26:04;101845.84;;;15.82;71.17
23261;BME280;11799;47.740;-3.390;2023-04-09T10:28:30;101831.94;;;15.78;72.50
23261;BME280;11799;47.740;-3.390;2023-04-09T10:30:57;101841.84;;;15.88;75.08
23261;BME280;11799;47.740;-3.390;2023-04-09T10:33:25;101837.88;;;15.82;69.75
23261;BME280;11799;47.740;-3.390;2023-04-09T10:35:52;101828.81;;;15.73;71.13
23261;BME280;11799;47.740;-3.390;2023-04-09T10:38:46;101828.47;;;15.67;68.76
23261;BME280;11799;47.740;-3.390;2023-04-09T10:41:26;101826.72;;;15.56;70.81
23261;BME280;11799;47.740;-3.390;2023-04-09T10:43:52;101825.47;;;15.60;74.81
23261;BME280;11799;47.740;-3.390;2023-04-09T10:46:42;101823.00;;;15.47;75.50
23261;BME280;11799;47.740;-3.390;2023-04-09T10:49:25;101817.06;;;15.44;78.41
23261;BME280;11799;47.740;-3.390;2023-04-09T10:51:52;101810.53;;;15.48;81.68
23261;BME280;11799;47.740;-3.390;2023-04-09T10:57:16;101817.09;;;15.33;79.70
23261;BME280;11799;47.740;-3.390;2023-04-09T10:59:45;101808.78;;;15.26;78.95
23261;BME280;11799;47.740;-3.390;2023-04-09T11:07:27;101805.66;;;15.21;84.97
23261;BME280;11799;47.740;-3.390;2023-04-09T11:09:54;101813.03;;;15.17;83.88
23261;BME280;11799;47.740;-3.390;2023-04-09T11:12:20;101812.41;;;15.25;87.03
23261;BME280;11799;47.740;-3.390;2023-04-09T11:14:45;101804.06;;;15.30;90.79
23261;BME280;11799;47.740;-3.390;2023-04-09T11:17:11;101812.63;;;15.33;86.58
23261;BME280;11799;47.740;-3.390;2023-04-09T11:19:37;101801.84;;;15.35;88.08
23261;BME280;11799;47.740;-3.390;2023-04-09T11:22:04;101805.25;;;15.37;89.07
23261;BME280;11799;47.740;-3.390;2023-04-09T11:24:40;101812.72;;;15.43;91.74
23261;BME280;11799;47.740;-3.390;2023-04-09T11:27:06;101794.09;;;15.43;90.97
23261;BME280;11799;47.740;-3.390;2023-04-09T11:29:34;101797.47;;;15.45;89.56
23261;BME280;11799;47.740;-3.390;2023-04-09T11:31:59;101790.19;;;15.47;87.07
23261;BME280;11799;47.740;-3.390;2023-04-09T11:34:28;101790.47;;;15.44;84.99
23261;BME280;11799;47.740;-3.390;2023-04-09T11:36:54;101784.03;;;15.46;85.72
23261;BME280;11799;47.740;-3.390;2023-04-09T11:39:19;101759.28;;;15.35;86.86
23261;BME280;11799;47.740;-3.390;2023-04-09T11:41:45;101777.09;;;15.55;86.67
23261;BME280;11799;47.740;-3.390;2023-04-09T11:44:11;101775.41;;;15.54;85.70
23261;BME280;11799;47.740;-3.390;2023-04-09T11:46:40;101772.88;;;15.52;86.10
23261;BME280;11799;47.740;-3.390;2023-04-09T11:49:06;101772.75;;;15.54;84.66
23261;BME280;11799;47.740;-3.390;2023-04-09T11:51:32;101772.53;;;15.57;87.39
23261;BME280;11799;47.740;-3.390;2023-04-09T11:54:06;101773.59;;;15.55;89.33
23261;BME280;11799;47.740;-3.390;2023-04-09T11:56:32;101777.56;;;15.60;90.75
23261;BME280;11799;47.740;-3.390;2023-04-09T11:59:01;101766.41;;;15.66;91.48
23261;BME280;11799;47.740;-3.390;2023-04-09T12:01:31;101767.97;;;15.69;86.56
23261;BME280;11799;47.740;-3.390;2023-04-09T12:03:57;101762.38;;;15.72;88.50
23261;BME280;11799;47.740;-3.390;2023-04-09T12:06:23;101763.22;;;15.72;85.58
23261;BME280;11799;47.740;-3.390;2023-04-09T12:08:56;101756.06;;;15.73;86.43
23261;BME280;11799;47.740;-3.390;2023-04-09T12:11:29;101750.09;;;15.80;88.80
23261;BME280;11799;47.740;-3.390;2023-04-09T12:14:02;101758.88;;;15.71;87.16
23261;BME280;11799;47.740;-3.390;2023-04-09T12:16:34;101758.41;;;15.66;89.51
23261;BME280;11799;47.740;-3.390;2023-04-09T12:19:01;101759.13;;;15.68;90.25
23261;BME280;11799;47.740;-3.390;2023-04-09T12:21:46;101747.88;;;15.65;89.44
23261;BME280;11799;47.740;-3.390;2023-04-09T12:24:12;101747.50;;;15.69;91.95
23261;BME280;11799;47.740;-3.390;2023-04-09T12:26:38;101742.56;;;15.65;92.19
23261;BME280;11799;47.740;-3.390;2023-04-09T12:29:04;101737.81;;;15.68;92.44
23261;BME280;11799;47.740;-3.390;2023-04-09T12:31:29;101734.31;;;15.68;91.84
23261;BME280;11799;47.740;-3.390;2023-04-09T12:33:58;101743.16;;;15.68;91.19
23261;BME280;11799;47.740;-3.390;2023-04-09T12:36:23;101748.22;;;15.71;93.92
23261;BME280;11799;47.740;-3.390;2023-04-09T12:38:49;101748.53;;;15.78;92.92
23261;BME280;11799;47.740;-3.390;2023-04-09T12:41:15;101749.50;;;15.77;94.00
23261;BME280;11799;47.740;-3.390;2023-04-09T12:43:41;101752.06;;;15.78;92.90
23261;BME280;11799;47.740;-3.390;2023-04-09T12:46:10;101741.00;;;15.83;94.27
23261;BME280;11799;47.740;-3.390;2023-04-09T12:48:35;101748.53;;;15.78;90.08
23261;BME280;11799;47.740;-3.390;2023-04-09T12:51:01;101745.75;;;15.79;92.49
23261;BME280;11799;47.740;-3.390;2023-04-09T12:53:27;101741.78;;;15.74;92.45
23261;BME280;11799;47.740;-3.390;2023-04-09T12:55:53;101734.38;;;15.77;93.50